sensor_id;sensor_type;location;lat;lon;timestamp;P1;durP1;ratioP1;P2;durP2;ratioP2
15312;SDS011;7757;52.626;4.746;2022-09-27T00:00:16;1.98;;;0.65;;
15312;SDS011;7757;52.626;4.746;2022-09-27T00:02:42;3.35;;;0.77;;
15312;SDS011;7757;52.626;4.746;2022-09-27T00:05:09;4.00;;;0.60;;
15312;SDS011;7757;52.626;4.746;2022-09-27T00:07:36;4.28;;;0.75;;
15312;SDS011;7757;52.626;4.746;2022-09-27T00:10:03;5.45;;;0.90;;
15312;SDS011;7757;52.626;4.746;2022-09-27T00:12:30;6.05;;;0.93;;
15312;SDS011;7757;52.626;4.746;2022-09-27T00:14:58;7.35;;;1.13;;
15312;SDS011;7757;52.626;4.746;2022-09-27T00:17:25;7.72;;;1.40;;
15312;SDS011;7757;52.626;4.746;2022-09-27T00:19:51;9.65;;;1.45;;
15312;SDS011;7757;52.626;4.746;2022-09-27T00:22:20;5.45;;;0.80;;
15312;SDS011;7757;52.626;4.746;2022-09-27T00:24:46;9.60;;;1.13;;
15312;SDS011;7757;52.626;4.746;2022-09-27T00:27:13;6.90;;;1.10;;
15312;SDS011;7757;52.626;4.746;2022-09-27T00:29:39;5.88;;;1.02;;
15312;SDS011;7757;52.626;4.746;2022-09-27T00:32:07;9.63;;;1.10;;
15312;SDS011;7757;52.626;4.746;2022-09-27T00:34:34;7.00;;;1.23;;
15312;SDS011;7757;52.626;4.746;2022-09-27T00:37:00;6.45;;;0.90;;
15312;SDS011;7757;52.626;4.746;2022-09-27T00:39:27;7.20;;;0.98;;
15312;SDS011;7757;52.626;4.746;2022-09-27T00:41:54;8.88;;;1.02;;
15312;SDS011;7757;52.626;4.746;2022-09-27T00:47:30;6.18;;;1.05;;
15312;SDS011;7757;52.626;4.746;2022-09-27T00:50:02;6.65;;;1.00;;
15312;SDS011;7757;52.626;4.746;2022-09-27T00:52:35;8.40;;;1.20;;
15312;SDS011;7757;52.626;4.746;2022-09-27T00:55:09;11.27;;;1.50;;
15312;SDS011;7757;52.626;4.746;2022-09-27T00:57:39;9.68;;;1.25;;
15312;SDS011;7757;52.626;4.746;2022-09-27T01:00:08;7.65;;;1.30;;
15312;SDS011;7757;52.626;4.746;2022-09-27T01:02:38;11.32;;;1.52;;
15312;SDS011;7757;52.626;4.746;2022-09-27T01:05:09;6.05;;;1.10;;
15312;SDS011;7757;52.626;4.746;2022-09-27T01:07:38;10.32;;;1.35;;
15312;SDS011;7757;52.626;4.746;2022-09-27T01:10:05;14.50;;;1.85;;
15312;SDS011;7757;52.626;4.746;2022-09-27T01:12:35;7.97;;;1.10;;
15312;SDS011;7757;52.626;4.746;2022-09-27T01:15:12;9.70;;;1.23;;
15312;SDS011;7757;52.626;4.746;2022-09-27T01:17:50;13.02;;;1.23;;
15312;SDS011;7757;52.626;4.746;2022-09-27T01:20:28;10.15;;;1.05;;
15312;SDS011;7757;52.626;4.746;2022-09-27T01:23:29;4.38;;;0.90;;
15312;SDS011;7757;52.626;4.746;2022-09-27T01:26:10;12.35;;;1.27;;
15312;SDS011;7757;52.626;4.746;2022-09-27T01:28:46;6.40;;;1.15;;
15312;SDS011;7757;52.626;4.746;2022-09-27T01:31:26;7.32;;;1.00;;
15312;SDS011;7757;52.626;4.746;2022-09-27T01:33:59;4.38;;;0.90;;
15312;SDS011;7757;52.626;4.746;2022-09-27T01:36:33;7.65;;;1.08;;
15312;SDS011;7757;52.626;4.746;2022-09-27T01:39:08;8.02;;;1.20;;
15312;SDS011;7757;52.626;4.746;2022-09-27T01:41:46;7.07;;;1.02;;
15312;SDS011;7757;52.626;4.746;2022-09-27T01:44:25;8.88;;;1.30;;
15312;SDS011;7757;52.626;4.746;2022-09-27T01:46:57;6.70;;;1.15;;
15312;SDS011;7757;52.626;4.746;2022-09-27T01:49:29;9.77;;;1.40;;
15312;SDS011;7757;52.626;4.746;2022-09-27T01:52:01;6.57;;;1.25;;
15312;SDS011;7757;52.626;4.746;2022-09-27T01:54:34;6.10;;;1.08;;
15312;SDS011;7757;52.626;4.746;2022-09-27T01:57:04;11.70;;;1.30;;
15312;SDS011;7757;52.626;4.746;2022-09-27T01:59:36;12.50;;;1.58;;
15312;SDS011;7757;52.626;4.746;2022-09-27T02:02:08;6.60;;;0.95;;
15312;SDS011;7757;52.626;4.746;2022-09-27T02:04:36;11.07;;;1.33;;
15312;SDS011;7757;52.626;4.746;2022-09-27T02:07:07;6.00;;;1.25;;
15312;SDS011;7757;52.626;4.746;2022-09-27T02:09:41;7.90;;;1.13;;
15312;SDS011;7757;52.626;4.746;2022-09-27T02:12:14;6.20;;;0.98;;
15312;SDS011;7757;52.626;4.746;2022-09-27T02:14:45;7.00;;;0.90;;
15312;SDS011;7757;52.626;4.746;2022-09-27T02:17:19;4.93;;;0.88;;
15312;SDS011;7757;52.626;4.746;2022-09-27T02:19:52;6.38;;;1.02;;
15312;SDS011;7757;52.626;4.746;2022-09-27T02:22:22;8.43;;;1.33;;
15312;SDS011;7757;52.626;4.746;2022-09-27T02:24:57;3.92;;;0.90;;
15312;SDS011;7757;52.626;4.746;2022-09-27T02:27:28;8.60;;;1.30;;
15312;SDS011;7757;52.626;4.746;2022-09-27T02:29:59;5.32;;;0.80;;
15312;SDS011;7757;52.626;4.746;2022-09-27T02:32:32;7.60;;;1.15;;
15312;SDS011;7757;52.626;4.746;2022-09-27T02:35:00;6.65;;;0.73;;
15312;SDS011;7757;52.626;4.746;2022-09-27T02:37:30;6.03;;;1.13;;
15312;SDS011;7757;52.626;4.746;2022-09-27T02:39:57;7.18;;;0.93;;
15312;SDS011;7757;52.626;4.746;2022-09-27T02:42:23;4.25;;;0.60;;
15312;SDS011;7757;52.626;4.746;2022-09-27T02:44:51;7.35;;;0.85;;
15312;SDS011;7757;52.626;4.746;2022-09-27T02:47:27;10.65;;;1.27;;
15312;SDS011;7757;52.626;4.746;2022-09-27T02:50:12;5.00;;;0.65;;
15312;SDS011;7757;52.626;4.746;2022-09-27T02:52:52;4.75;;;0.80;;
15312;SDS011;7757;52.626;4.746;2022-09-27T02:55:33;6.40;;;0.93;;
15312;SDS011;7757;52.626;4.746;2022-09-27T02:58:14;5.82;;;0.98;;
15312;SDS011;7757;52.626;4.746;2022-09-27T03:00:53;7.05;;;1.00;;
15312;SDS011;7757;52.626;4.746;2022-09-27T03:03:30;4.05;;;0.75;;
15312;SDS011;7757;52.626;4.746;2022-09-27T03:06:05;4.63;;;0.77;;
15312;SDS011;7757;52.626;4.746;2022-09-27T03:08:35;3.42;;;0.88;;
15312;SDS011;7757;52.626;4.746;2022-09-27T03:11:02;3.67;;;0.60;;
15312;SDS011;7757;52.626;4.746;2022-09-27T03:13:29;7.15;;;0.95;;
15312;SDS011;7757;52.626;4.746;2022-09-27T03:15:57;4.25;;;0.80;;
15312;SDS011;7757;52.626;4.746;2022-09-27T03:18:24;4.70;;;0.82;;
15312;SDS011;7757;52.626;4.746;2022-09-27T03:20:52;7.97;;;1.17;;
15312;SDS011;7757;52.626;4.746;2022-09-27T03:23:19;6.60;;;0.82;;
15312;SDS011;7757;52.626;4.746;2022-09-27T03:25:45;1.58;;;0.50;;
15312;SDS011;7757;52.626;4.746;2022-09-27T03:28:12;3.47;;;0.68;;
15312;SDS011;7757;52.626;4.746;2022-09-27T03:30:39;2.90;;;0.60;;
15312;SDS011;7757;52.626;4.746;2022-09-27T03:33:06;4.80;;;0.73;;
15312;SDS011;7757;52.626;4.746;2022-09-27T03:35:33;4.38;;;0.80;;
15312;SDS011;7757;52.626;4.746;2022-09-27T03:38:01;4.32;;;0.90;;
15312;SDS011;7757;52.626;4.746;2022-09-27T03:40:27;4.32;;;0.75;;
15312;SDS011;7757;52.626;4.746;2022-09-27T03:42:54;5.18;;;1.08;;
15312;SDS011;7757;52.626;4.746;2022-09-27T03:45:21;4.07;;;0.70;;
15312;SDS011;7757;52.626;4.746;2022-09-27T03:47:47;4.47;;;1.30;;
15312;SDS011;7757;52.626;4.746;2022-09-27T03:50:14;9.30;;;1.02;;
15312;SDS011;7757;52.626;4.746;2022-09-27T03:52:41;5.90;;;0.75;;
15312;SDS011;7757;52.626;4.746;2022-09-27T03:55:09;4.10;;;0.70;;
15312;SDS011;7757;52.626;4.746;2022-09-27T03:57:37;4.30;;;0.60;;
15312;SDS011;7757;52.626;4.746;2022-09-27T04:00:04;3.65;;;0.73;;
15312;SDS011;7757;52.626;4.746;2022-09-27T04:02:31;5.85;;;0.73;;
15312;SDS011;7757;52.626;4.746;2022-09-27T04:04:58;7.50;;;1.00;;
15312;SDS011;7757;52.626;4.746;2022-09-27T04:07:24;5.13;;;0.70;;
15312;SDS011;7757;52.626;4.746;2022-09-27T04:09:51;9.95;;;1.33;;
15312;SDS011;7757;52.626;4.746;2022-09-27T04:12:19;5.68;;;1.00;;
15312;SDS011;7757;52.626;4.746;2022-09-27T04:14:45;4.50;;;0.80;;
15312;SDS011;7757;52.626;4.746;2022-09-27T04:17:12;2.50;;;0.40;;
15312;SDS011;7757;52.626;4.746;2022-09-27T04:19:38;5.45;;;0.90;;
15312;SDS011;7757;52.626;4.746;2022-09-27T04:22:05;4.25;;;0.75;;
15312;SDS011;7757;52.626;4.746;2022-09-27T04:24:32;5.68;;;0.95;;
15312;SDS011;7757;52.626;4.746;2022-09-27T04:26:58;4.47;;;0.80;;
15312;SDS011;7757;52.626;4.746;2022-09-27T04:29:26;6.25;;;0.95;;
15312;SDS011;7757;52.626;4.746;2022-09-27T04:31:53;4.28;;;0.82;;
15312;SDS011;7757;52.626;4.746;2022-09-27T04:34:20;5.47;;;0.98;;
15312;SDS011;7757;52.626;4.746;2022-09-27T04:37:06;5.22;;;0.80;;
15312;SDS011;7757;52.626;4.746;2022-09-27T04:39:32;4.43;;;0.57;;
15312;SDS011;7757;52.626;4.746;2022-09-27T04:42:00;5.40;;;0.80;;
15312;SDS011;7757;52.626;4.746;2022-09-27T04:44:28;6.75;;;1.13;;
15312;SDS011;7757;52.626;4.746;2022-09-27T04:46:55;4.57;;;0.75;;
15312;SDS011;7757;52.626;4.746;2022-09-27T04:49:22;8.68;;;1.20;;
15312;SDS011;7757;52.626;4.746;2022-09-27T04:51:48;6.07;;;0.75;;
15312;SDS011;7757;52.626;4.746;2022-09-27T04:54:15;7.05;;;1.00;;
15312;SDS011;7757;52.626;4.746;2022-09-27T04:56:41;9.35;;;1.10;;
15312;SDS011;7757;52.626;4.746;2022-09-27T04:59:08;5.13;;;0.70;;
15312;SDS011;7757;52.626;4.746;2022-09-27T05:01:35;4.78;;;0.90;;
15312;SDS011;7757;52.626;4.746;2022-09-27T05:04:02;6.10;;;0.73;;
15312;SDS011;7757;52.626;4.746;2022-09-27T05:06:28;5.35;;;0.77;;
15312;SDS011;7757;52.626;4.746;2022-09-27T05:08:55;2.42;;;0.70;;
15312;SDS011;7757;52.626;4.746;2022-09-27T05:11:22;2.42;;;0.40;;
15312;SDS011;7757;52.626;4.746;2022-09-27T05:13:49;3.80;;;0.68;;
15312;SDS011;7757;52.626;4.746;2022-09-27T05:16:15;5.00;;;0.80;;
15312;SDS011;7757;52.626;4.746;2022-09-27T05:18:43;6.30;;;0.93;;
15312;SDS011;7757;52.626;4.746;2022-09-27T05:21:10;4.45;;;0.70;;
15312;SDS011;7757;52.626;4.746;2022-09-27T05:23:36;6.63;;;1.00;;
15312;SDS011;7757;52.626;4.746;2022-09-27T05:26:03;5.38;;;0.88;;
15312;SDS011;7757;52.626;4.746;2022-09-27T05:28:30;5.30;;;0.70;;
15312;SDS011;7757;52.626;4.746;2022-09-27T05:30:59;7.88;;;1.00;;
15312;SDS011;7757;52.626;4.746;2022-09-27T05:33:25;7.93;;;0.77;;
15312;SDS011;7757;52.626;4.746;2022-09-27T05:35:54;5.72;;;0.70;;
15312;SDS011;7757;52.626;4.746;2022-09-27T05:38:22;5.95;;;0.63;;
15312;SDS011;7757;52.626;4.746;2022-09-27T05:40:49;9.98;;;1.90;;
15312;SDS011;7757;52.626;4.746;2022-09-27T05:43:16;11.75;;;1.73;;
15312;SDS011;7757;52.626;4.746;2022-09-27T05:45:44;10.68;;;1.60;;
15312;SDS011;7757;52.626;4.746;2022-09-27T05:48:10;8.30;;;1.65;;
15312;SDS011;7757;52.626;4.746;2022-09-27T05:50:38;12.05;;;1.42;;
15312;SDS011;7757;52.626;4.746;2022-09-27T05:53:06;10.05;;;1.45;;
15312;SDS011;7757;52.626;4.746;2022-09-27T05:55:34;8.88;;;1.40;;
15312;SDS011;7757;52.626;4.746;2022-09-27T05:58:01;8.82;;;1.42;;
15312;SDS011;7757;52.626;4.746;2022-09-27T06:00:30;12.98;;;2.10;;
15312;SDS011;7757;52.626;4.746;2022-09-27T06:02:57;12.10;;;2.33;;
15312;SDS011;7757;52.626;4.746;2022-09-27T06:05:26;19.50;;;2.55;;
15312;SDS011;7757;52.626;4.746;2022-09-27T06:07:57;14.48;;;1.92;;
15312;SDS011;7757;52.626;4.746;2022-09-27T06:10:27;17.13;;;2.95;;
15312;SDS011;7757;52.626;4.746;2022-09-27T06:12:57;9.93;;;2.20;;
15312;SDS011;7757;52.626;4.746;2022-09-27T06:15:25;16.15;;;2.55;;
15312;SDS011;7757;52.626;4.746;2022-09-27T06:17:51;12.07;;;2.28;;
15312;SDS011;7757;52.626;4.746;2022-09-27T06:20:18;12.23;;;1.98;;
15312;SDS011;7757;52.626;4.746;2022-09-27T06:22:44;9.20;;;1.80;;
15312;SDS011;7757;52.626;4.746;2022-09-27T06:25:11;12.98;;;2.22;;
15312;SDS011;7757;52.626;4.746;2022-09-27T06:27:39;13.48;;;2.38;;
15312;SDS011;7757;52.626;4.746;2022-09-27T06:30:06;11.75;;;1.92;;
15312;SDS011;7757;52.626;4.746;2022-09-27T06:32:33;14.88;;;1.95;;
15312;SDS011;7757;52.626;4.746;2022-09-27T06:35:00;8.05;;;1.70;;
15312;SDS011;7757;52.626;4.746;2022-09-27T06:37:29;9.32;;;1.98;;
15312;SDS011;7757;52.626;4.746;2022-09-27T06:39:55;15.63;;;2.03;;
15312;SDS011;7757;52.626;4.746;2022-09-27T06:42:22;12.32;;;2.05;;
15312;SDS011;7757;52.626;4.746;2022-09-27T06:44:50;14.20;;;2.20;;
15312;SDS011;7757;52.626;4.746;2022-09-27T06:47:16;9.60;;;1.98;;
15312;SDS011;7757;52.626;4.746;2022-09-27T06:49:43;12.15;;;1.98;;
15312;SDS011;7757;52.626;4.746;2022-09-27T06:52:10;14.20;;;2.40;;
15312;SDS011;7757;52.626;4.746;2022-09-27T06:54:36;9.20;;;1.75;;
15312;SDS011;7757;52.626;4.746;2022-09-27T06:57:03;11.05;;;1.88;;
15312;SDS011;7757;52.626;4.746;2022-09-27T06:59:30;9.40;;;1.88;;
15312;SDS011;7757;52.626;4.746;2022-09-27T07:02:16;8.98;;;1.70;;
15312;SDS011;7757;52.626;4.746;2022-09-27T07:04:42;11.10;;;1.85;;
15312;SDS011;7757;52.626;4.746;2022-09-27T07:07:09;8.40;;;1.80;;
15312;SDS011;7757;52.626;4.746;2022-09-27T07:09:36;10.68;;;1.80;;
15312;SDS011;7757;52.626;4.746;2022-09-27T07:12:04;9.73;;;1.67;;
15312;SDS011;7757;52.626;4.746;2022-09-27T07:14:31;10.07;;;1.65;;
15312;SDS011;7757;52.626;4.746;2022-09-27T07:16:59;9.48;;;1.73;;
15312;SDS011;7757;52.626;4.746;2022-09-27T07:19:27;8.27;;;1.70;;
15312;SDS011;7757;52.626;4.746;2022-09-27T07:21:53;12.05;;;1.80;;
15312;SDS011;7757;52.626;4.746;2022-09-27T07:24:20;9.05;;;1.80;;
15312;SDS011;7757;52.626;4.746;2022-09-27T07:26:46;9.57;;;1.80;;
15312;SDS011;7757;52.626;4.746;2022-09-27T07:29:13;8.63;;;1.58;;
15312;SDS011;7757;52.626;4.746;2022-09-27T07:31:40;10.63;;;1.67;;
15312;SDS011;7757;52.626;4.746;2022-09-27T07:34:07;9.35;;;1.58;;
15312;SDS011;7757;52.626;4.746;2022-09-27T07:36:36;11.73;;;1.67;;
15312;SDS011;7757;52.626;4.746;2022-09-27T07:39:03;8.40;;;1.50;;
15312;SDS011;7757;52.626;4.746;2022-09-27T07:41:29;11.77;;;1.60;;
15312;SDS011;7757;52.626;4.746;2022-09-27T07:43:56;8.23;;;1.70;;
15312;SDS011;7757;52.626;4.746;2022-09-27T07:46:23;9.32;;;1.58;;
15312;SDS011;7757;52.626;4.746;2022-09-27T07:48:50;8.18;;;1.52;;
15312;SDS011;7757;52.626;4.746;2022-09-27T07:51:17;10.15;;;1.90;;
15312;SDS011;7757;52.626;4.746;2022-09-27T07:53:45;8.18;;;1.58;;
15312;SDS011;7757;52.626;4.746;2022-09-27T07:56:11;6.30;;;1.50;;
15312;SDS011;7757;52.626;4.746;2022-09-27T07:58:38;7.75;;;1.40;;
15312;SDS011;7757;52.626;4.746;2022-09-27T08:01:04;8.02;;;1.60;;
15312;SDS011;7757;52.626;4.746;2022-09-27T08:03:31;8.40;;;1.40;;
15312;SDS011;7757;52.626;4.746;2022-09-27T08:06:00;11.73;;;1.50;;
15312;SDS011;7757;52.626;4.746;2022-09-27T08:08:28;8.60;;;1.52;;
15312;SDS011;7757;52.626;4.746;2022-09-27T08:10:55;8.32;;;1.67;;
15312;SDS011;7757;52.626;4.746;2022-09-27T08:13:22;8.82;;;1.40;;
15312;SDS011;7757;52.626;4.746;2022-09-27T08:15:49;8.90;;;1.48;;
15312;SDS011;7757;52.626;4.746;2022-09-27T08:18:16;7.03;;;1.45;;
15312;SDS011;7757;52.626;4.746;2022-09-27T08:20:45;10.02;;;1.27;;
15312;SDS011;7757;52.626;4.746;2022-09-27T08:23:12;6.28;;;1.30;;
15312;SDS011;7757;52.626;4.746;2022-09-27T08:25:38;6.68;;;1.20;;
15312;SDS011;7757;52.626;4.746;2022-09-27T08:28:07;5.80;;;1.25;;
15312;SDS011;7757;52.626;4.746;2022-09-27T08:30:34;8.98;;;1.50;;
15312;SDS011;7757;52.626;4.746;2022-09-27T08:33:02;6.88;;;1.33;;
15312;SDS011;7757;52.626;4.746;2022-09-27T08:35:29;6.85;;;1.20;;
15312;SDS011;7757;52.626;4.746;2022-09-27T08:37:58;5.97;;;1.33;;
15312;SDS011;7757;52.626;4.746;2022-09-27T08:40:28;6.28;;;1.30;;
15312;SDS011;7757;52.626;4.746;2022-09-27T08:43:04;7.78;;;1.42;;
15312;SDS011;7757;52.626;4.746;2022-09-27T08:45:41;6.32;;;1.10;;
15312;SDS011;7757;52.626;4.746;2022-09-27T08:48:20;6.88;;;1.38;;
15312;SDS011;7757;52.626;4.746;2022-09-27T08:50:50;7.70;;;1.40;;
15312;SDS011;7757;52.626;4.746;2022-09-27T08:53:18;6.43;;;1.30;;
15312;SDS011;7757;52.626;4.746;2022-09-27T08:55:47;7.97;;;1.42;;
15312;SDS011;7757;52.626;4.746;2022-09-27T08:58:18;7.15;;;1.45;;
15312;SDS011;7757;52.626;4.746;2022-09-27T09:03:20;4.30;;;1.00;;
15312;SDS011;7757;52.626;4.746;2022-09-27T09:05:51;7.43;;;1.20;;
15312;SDS011;7757;52.626;4.746;2022-09-27T09:08:34;6.78;;;1.27;;
15312;SDS011;7757;52.626;4.746;2022-09-27T09:11:10;4.85;;;1.02;;
15312;SDS011;7757;52.626;4.746;2022-09-27T09:16:57;6.75;;;1.17;;
15312;SDS011;7757;52.626;4.746;2022-09-27T09:19:33;5.78;;;1.13;;
15312;SDS011;7757;52.626;4.746;2022-09-27T09:22:12;5.72;;;1.38;;
15312;SDS011;7757;52.626;4.746;2022-09-27T09:24:57;5.97;;;1.00;;
15312;SDS011;7757;52.626;4.746;2022-09-27T09:27:32;4.57;;;1.10;;
15312;SDS011;7757;52.626;4.746;2022-09-27T09:30:17;5.85;;;1.15;;
15312;SDS011;7757;52.626;4.746;2022-09-27T09:32:50;4.90;;;1.10;;
15312;SDS011;7757;52.626;4.746;2022-09-27T09:35:30;8.32;;;1.45;;
15312;SDS011;7757;52.626;4.746;2022-09-27T09:38:02;5.55;;;1.13;;
15312;SDS011;7757;52.626;4.746;2022-09-27T09:40:36;6.68;;;1.23;;
15312;SDS011;7757;52.626;4.746;2022-09-27T09:43:08;4.72;;;1.13;;
15312;SDS011;7757;52.626;4.746;2022-09-27T09:45:39;6.80;;;1.10;;
15312;SDS011;7757;52.626;4.746;2022-09-27T09:48:13;6.70;;;1.33;;
15312;SDS011;7757;52.626;4.746;2022-09-27T09:50:46;4.22;;;1.00;;
15312;SDS011;7757;52.626;4.746;2022-09-27T09:53:15;8.40;;;1.35;;
15312;SDS011;7757;52.626;4.746;2022-09-27T09:55:47;6.78;;;1.10;;
15312;SDS011;7757;52.626;4.746;2022-09-27T09:58:23;7.57;;;1.10;;
15312;SDS011;7757;52.626;4.746;2022-09-27T10:00:55;8.57;;;1.23;;
15312;SDS011;7757;52.626;4.746;2022-09-27T10:03:27;6.22;;;1.42;;
15312;SDS011;7757;52.626;4.746;2022-09-27T10:05:53;5.90;;;1.17;;
15312;SDS011;7757;52.626;4.746;2022-09-27T10:08:21;5.53;;;1.58;;
15312;SDS011;7757;52.626;4.746;2022-09-27T10:10:48;4.45;;;1.02;;
15312;SDS011;7757;52.626;4.746;2022-09-27T10:13:15;6.30;;;1.38;;
15312;SDS011;7757;52.626;4.746;2022-09-27T10:15:45;4.88;;;0.82;;
15312;SDS011;7757;52.626;4.746;2022-09-27T10:20:48;6.95;;;1.33;;
15312;SDS011;7757;52.626;4.746;2022-09-27T10:23:18;5.20;;;0.88;;
15312;SDS011;7757;52.626;4.746;2022-09-27T10:25:47;4.30;;;0.90;;
15312;SDS011;7757;52.626;4.746;2022-09-27T10:28:30;4.80;;;0.88;;
15312;SDS011;7757;52.626;4.746;2022-09-27T10:31:01;7.43;;;1.17;;
15312;SDS011;7757;52.626;4.746;2022-09-27T10:33:30;3.13;;;0.70;;
15312;SDS011;7757;52.626;4.746;2022-09-27T10:36:00;4.50;;;0.95;;
15312;SDS011;7757;52.626;4.746;2022-09-27T10:38:28;6.82;;;1.13;;
15312;SDS011;7757;52.626;4.746;2022-09-27T10:40:57;1.83;;;0.68;;
15312;SDS011;7757;52.626;4.746;2022-09-27T10:43:40;4.05;;;0.98;;
15312;SDS011;7757;52.626;4.746;2022-09-27T10:46:12;3.28;;;0.65;;
15312;SDS011;7757;52.626;4.746;2022-09-27T10:48:47;3.97;;;0.90;;
15312;SDS011;7757;52.626;4.746;2022-09-27T10:51:34;6.70;;;0.90;;
15312;SDS011;7757;52.626;4.746;2022-09-27T10:54:01;6.38;;;1.10;;
15312;SDS011;7757;52.626;4.746;2022-09-27T10:56:28;6.93;;;0.90;;
15312;SDS011;7757;52.626;4.746;2022-09-27T10:58:56;3.42;;;0.70;;
15312;SDS011;7757;52.626;4.746;2022-09-27T11:01:24;4.03;;;0.85;;
15312;SDS011;7757;52.626;4.746;2022-09-27T11:03:52;3.08;;;0.82;;
15312;SDS011;7757;52.626;4.746;2022-09-27T11:06:26;4.88;;;0.90;;
15312;SDS011;7757;52.626;4.746;2022-09-27T11:09:08;4.75;;;0.90;;
15312;SDS011;7757;52.626;4.746;2022-09-27T11:11:42;3.83;;;0.95;;
15312;SDS011;7757;52.626;4.746;2022-09-27T11:14:16;2.20;;;0.70;;
15312;SDS011;7757;52.626;4.746;2022-09-27T11:16:47;5.25;;;0.93;;
15312;SDS011;7757;52.626;4.746;2022-09-27T11:19:26;4.03;;;0.80;;
15312;SDS011;7757;52.626;4.746;2022-09-27T11:22:01;4.60;;;0.90;;
15312;SDS011;7757;52.626;4.746;2022-09-27T11:24:45;4.72;;;0.68;;
15312;SDS011;7757;52.626;4.746;2022-09-27T11:27:24;3.85;;;0.73;;
15312;SDS011;7757;52.626;4.746;2022-09-27T11:30:03;4.85;;;1.00;;
15312;SDS011;7757;52.626;4.746;2022-09-27T11:32:36;5.03;;;1.00;;
15312;SDS011;7757;52.626;4.746;2022-09-27T11:35:25;3.63;;;0.70;;
15312;SDS011;7757;52.626;4.746;2022-09-27T11:38:09;4.43;;;0.90;;
15312;SDS011;7757;52.626;4.746;2022-09-27T11:40:49;2.70;;;0.63;;
15312;SDS011;7757;52.626;4.746;2022-09-27T11:43:45;2.90;;;0.70;;
15312;SDS011;7757;52.626;4.746;2022-09-27T11:46:31;2.53;;;0.73;;
15312;SDS011;7757;52.626;4.746;2022-09-27T11:52:07;1.05;;;0.40;;
15312;SDS011;7757;52.626;4.746;2022-09-27T11:54:50;1.55;;;0.65;;
15312;SDS011;7757;52.626;4.746;2022-09-27T11:57:29;4.22;;;0.60;;
15312;SDS011;7757;52.626;4.746;2022-09-27T12:00:16;4.75;;;0.88;;
15312;SDS011;7757;52.626;4.746;2022-09-27T12:05:38;2.80;;;0.63;;
15312;SDS011;7757;52.626;4.746;2022-09-27T12:08:23;3.35;;;0.80;;
15312;SDS011;7757;52.626;4.746;2022-09-27T12:10:57;1.75;;;0.60;;
15312;SDS011;7757;52.626;4.746;2022-09-27T12:13:35;3.55;;;0.90;;
15312;SDS011;7757;52.626;4.746;2022-09-27T12:16:04;3.97;;;0.75;;
15312;SDS011;7757;52.626;4.746;2022-09-27T12:18:32;3.25;;;0.60;;
15312;SDS011;7757;52.626;4.746;2022-09-27T12:21:03;4.40;;;0.80;;
15312;SDS011;7757;52.626;4.746;2022-09-27T12:23:33;4.40;;;0.90;;
15312;SDS011;7757;52.626;4.746;2022-09-27T12:26:05;1.60;;;0.63;;
15312;SDS011;7757;52.626;4.746;2022-09-27T12:28:39;5.40;;;0.80;;
15312;SDS011;7757;52.626;4.746;2022-09-27T12:31:15;3.30;;;0.63;;
15312;SDS011;7757;52.626;4.746;2022-09-27T12:33:48;15.00;;;0.90;;
15312;SDS011;7757;52.626;4.746;2022-09-27T12:38:49;3.72;;;0.65;;
15312;SDS011;7757;52.626;4.746;2022-09-27T12:41:22;3.40;;;0.63;;
15312;SDS011;7757;52.626;4.746;2022-09-27T12:43:53;4.45;;;0.70;;
15312;SDS011;7757;52.626;4.746;2022-09-27T12:46:23;5.22;;;0.60;;
15312;SDS011;7757;52.626;4.746;2022-09-27T12:49:01;2.72;;;0.68;;
15312;SDS011;7757;52.626;4.746;2022-09-27T12:51:34;5.35;;;1.00;;
15312;SDS011;7757;52.626;4.746;2022-09-27T12:54:08;7.10;;;0.88;;
15312;SDS011;7757;52.626;4.746;2022-09-27T12:56:53;3.10;;;0.70;;
15312;SDS011;7757;52.626;4.746;2022-09-27T12:59:32;3.55;;;0.60;;
15312;SDS011;7757;52.626;4.746;2022-09-27T13:05:19;3.13;;;0.75;;
15312;SDS011;7757;52.626;4.746;2022-09-27T13:08:16;3.67;;;0.90;;
15312;SDS011;7757;52.626;4.746;2022-09-27T13:10:57;3.75;;;0.90;;
15312;SDS011;7757;52.626;4.746;2022-09-27T13:13:33;5.28;;;0.95;;
15312;SDS011;7757;52.626;4.746;2022-09-27T13:16:03;2.63;;;0.70;;
15312;SDS011;7757;52.626;4.746;2022-09-27T13:18:31;6.30;;;1.00;;
15312;SDS011;7757;52.626;4.746;2022-09-27T13:39:05;6.53;;;0.88;;
15312;SDS011;7757;52.626;4.746;2022-09-27T13:44:47;4.00;;;0.82;;
15312;SDS011;7757;52.626;4.746;2022-09-27T13:47:26;4.78;;;0.90;;
15312;SDS011;7757;52.626;4.746;2022-09-27T13:50:03;5.15;;;1.08;;
15312;SDS011;7757;52.626;4.746;2022-09-27T13:52:43;4.47;;;0.88;;
15312;SDS011;7757;52.626;4.746;2022-09-27T13:55:37;4.10;;;1.00;;
15312;SDS011;7757;52.626;4.746;2022-09-27T13:58:04;6.80;;;1.10;;
15312;SDS011;7757;52.626;4.746;2022-09-27T14:00:41;4.60;;;0.98;;
15312;SDS011;7757;52.626;4.746;2022-09-27T14:03:13;4.88;;;1.05;;
15312;SDS011;7757;52.626;4.746;2022-09-27T14:05:49;3.78;;;1.00;;
15312;SDS011;7757;52.626;4.746;2022-09-27T14:08:22;4.45;;;0.93;;
15312;SDS011;7757;52.626;4.746;2022-09-27T14:10:53;3.75;;;0.98;;
15312;SDS011;7757;52.626;4.746;2022-09-27T14:13:21;5.22;;;1.10;;
15312;SDS011;7757;52.626;4.746;2022-09-27T14:15:50;3.30;;;0.95;;
15312;SDS011;7757;52.626;4.746;2022-09-27T14:18:17;3.72;;;1.08;;
15312;SDS011;7757;52.626;4.746;2022-09-27T14:20:45;4.15;;;1.10;;
15312;SDS011;7757;52.626;4.746;2022-09-27T14:23:15;4.68;;;1.20;;
15312;SDS011;7757;52.626;4.746;2022-09-27T14:25:44;3.45;;;1.00;;
15312;SDS011;7757;52.626;4.746;2022-09-27T14:28:19;5.30;;;1.10;;
15312;SDS011;7757;52.626;4.746;2022-09-27T14:30:47;3.90;;;1.08;;
15312;SDS011;7757;52.626;4.746;2022-09-27T14:33:27;3.70;;;1.00;;
15312;SDS011;7757;52.626;4.746;2022-09-27T14:35:56;4.40;;;1.10;;
15312;SDS011;7757;52.626;4.746;2022-09-27T14:38:42;4.97;;;1.15;;
15312;SDS011;7757;52.626;4.746;2022-09-27T14:41:09;4.72;;;1.10;;
15312;SDS011;7757;52.626;4.746;2022-09-27T14:43:42;4.78;;;1.00;;
15312;SDS011;7757;52.626;4.746;2022-09-27T14:46:22;4.22;;;0.85;;
15312;SDS011;7757;52.626;4.746;2022-09-27T14:48:51;4.38;;;1.00;;
15312;SDS011;7757;52.626;4.746;2022-09-27T14:51:20;2.95;;;0.98;;
15312;SDS011;7757;52.626;4.746;2022-09-27T14:53:54;4.97;;;1.10;;
15312;SDS011;7757;52.626;4.746;2022-09-27T14:56:23;3.88;;;1.13;;
15312;SDS011;7757;52.626;4.746;2022-09-27T14:58:53;4.93;;;1.23;;
15312;SDS011;7757;52.626;4.746;2022-09-27T15:03:53;5.97;;;1.05;;
15312;SDS011;7757;52.626;4.746;2022-09-27T15:06:23;4.45;;;1.05;;
15312;SDS011;7757;52.626;4.746;2022-09-27T15:08:50;6.35;;;1.20;;
15312;SDS011;7757;52.626;4.746;2022-09-27T15:11:18;4.68;;;1.10;;
15312;SDS011;7757;52.626;4.746;2022-09-27T15:13:46;4.18;;;1.00;;
15312;SDS011;7757;52.626;4.746;2022-09-27T15:16:18;4.45;;;1.10;;
15312;SDS011;7757;52.626;4.746;2022-09-27T15:18:47;6.38;;;1.30;;
15312;SDS011;7757;52.626;4.746;2022-09-27T15:21:27;4.40;;;1.00;;
15312;SDS011;7757;52.626;4.746;2022-09-27T15:23:56;4.00;;;1.08;;
15312;SDS011;7757;52.626;4.746;2022-09-27T15:26:24;2.67;;;0.90;;
15312;SDS011;7757;52.626;4.746;2022-09-27T15:29:00;6.45;;;1.20;;
15312;SDS011;7757;52.626;4.746;2022-09-27T15:31:27;6.03;;;1.30;;
15312;SDS011;7757;52.626;4.746;2022-09-27T15:33:55;4.38;;;1.33;;
15312;SDS011;7757;52.626;4.746;2022-09-27T15:39:25;5.97;;;1.20;;
15312;SDS011;7757;52.626;4.746;2022-09-27T15:42:00;3.83;;;1.00;;
15312;SDS011;7757;52.626;4.746;2022-09-27T15:44:36;3.65;;;1.02;;
15312;SDS011;7757;52.626;4.746;2022-09-27T15:53:00;3.22;;;0.98;;
15312;SDS011;7757;52.626;4.746;2022-09-27T15:55:28;3.17;;;1.00;;
15312;SDS011;7757;52.626;4.746;2022-09-27T15:57:58;3.03;;;0.95;;
15312;SDS011;7757;52.626;4.746;2022-09-27T16:00:26;3.35;;;1.00;;
15312;SDS011;7757;52.626;4.746;2022-09-27T16:02:53;5.88;;;1.10;;
15312;SDS011;7757;52.626;4.746;2022-09-27T16:05:20;4.03;;;1.00;;
15312;SDS011;7757;52.626;4.746;2022-09-27T16:07:47;4.00;;;1.10;;
15312;SDS011;7757;52.626;4.746;2022-09-27T16:10:17;3.72;;;1.02;;
15312;SDS011;7757;52.626;4.746;2022-09-27T16:12:44;4.40;;;1.15;;
15312;SDS011;7757;52.626;4.746;2022-09-27T16:15:11;3.03;;;0.85;;
15312;SDS011;7757;52.626;4.746;2022-09-27T16:17:38;4.32;;;0.95;;